sensor_id;sensor_type;location;lat;lon;timestamp;P1;durP1;ratioP1;P2;durP2;ratioP2
14394;SDS011;7282;49.204;10.652;2022-09-12T00:02:07;12.23;;;10.93;;
14394;SDS011;7282;49.204;10.652;2022-09-12T00:04:34;13.53;;;11.50;;
14394;SDS011;7282;49.204;10.652;2022-09-12T00:07:00;13.10;;;11.70;;
14394;SDS011;7282;49.204;10.652;2022-09-12T00:09:27;12.17;;;10.83;;
14394;SDS011;7282;49.204;10.652;2022-09-12T00:11:54;15.13;;;11.70;;
14394;SDS011;7282;49.204;10.652;2022-09-12T00:14:20;12.33;;;10.93;;
14394;SDS011;7282;49.204;10.652;2022-09-12T00:16:47;13.37;;;11.90;;
14394;SDS011;7282;49.204;10.652;2022-09-12T00:19:14;12.20;;;10.90;;
14394;SDS011;7282;49.204;10.652;2022-09-12T00:21:40;12.27;;;10.70;;
14394;SDS011;7282;49.204;10.652;2022-09-12T00:24:07;12.43;;;11.13;;
14394;SDS011;7282;49.204;10.652;2022-09-12T00:26:35;11.90;;;10.67;;
14394;SDS011;7282;49.204;10.652;2022-09-12T00:29:02;11.03;;;9.93;;
14394;SDS011;7282;49.204;10.652;2022-09-12T00:31:29;12.53;;;10.70;;
14394;SDS011;7282;49.204;10.652;2022-09-12T00:33:57;10.90;;;9.80;;
14394;SDS011;7282;49.204;10.652;2022-09-12T00:36:26;11.53;;;9.90;;
14394;SDS011;7282;49.204;10.652;2022-09-12T00:38:53;12.27;;;10.80;;
14394;SDS011;7282;49.204;10.652;2022-09-12T00:41:28;11.77;;;10.57;;
14394;SDS011;7282;49.204;10.652;2022-09-12T00:43:55;11.20;;;10.10;;
14394;SDS011;7282;49.204;10.652;2022-09-12T00:46:25;11.90;;;10.67;;
14394;SDS011;7282;49.204;10.652;2022-09-12T00:51:27;13.27;;;11.90;;
14394;SDS011;7282;49.204;10.652;2022-09-12T00:53:55;14.40;;;12.90;;
14394;SDS011;7282;49.204;10.652;2022-09-12T00:56:24;14.13;;;12.63;;
14394;SDS011;7282;49.204;10.652;2022-09-12T00:58:57;12.23;;;10.93;;
14394;SDS011;7282;49.204;10.652;2022-09-12T01:01:23;13.30;;;11.90;;
14394;SDS011;7282;49.204;10.652;2022-09-12T01:03:50;14.00;;;12.47;;
14394;SDS011;7282;49.204;10.652;2022-09-12T01:06:17;14.23;;;12.73;;
14394;SDS011;7282;49.204;10.652;2022-09-12T01:08:46;13.57;;;12.00;;
14394;SDS011;7282;49.204;10.652;2022-09-12T01:11:14;12.40;;;11.10;;
14394;SDS011;7282;49.204;10.652;2022-09-12T01:13:41;12.63;;;11.33;;
14394;SDS011;7282;49.204;10.652;2022-09-12T01:16:08;12.07;;;10.87;;
14394;SDS011;7282;49.204;10.652;2022-09-12T01:18:44;12.57;;;11.27;;
14394;SDS011;7282;49.204;10.652;2022-09-12T01:21:13;12.00;;;10.80;;
14394;SDS011;7282;49.204;10.652;2022-09-12T01:23:50;13.03;;;11.00;;
14394;SDS011;7282;49.204;10.652;2022-09-12T01:26:24;11.87;;;10.67;;
14394;SDS011;7282;49.204;10.652;2022-09-12T01:31:27;12.00;;;10.70;;
14394;SDS011;7282;49.204;10.652;2022-09-12T01:34:01;12.30;;;11.00;;
14394;SDS011;7282;49.204;10.652;2022-09-12T01:36:42;11.33;;;10.23;;
14394;SDS011;7282;49.204;10.652;2022-09-12T01:41:54;12.93;;;11.63;;
14394;SDS011;7282;49.204;10.652;2022-09-12T01:44:33;12.30;;;11.07;;
14394;SDS011;7282;49.204;10.652;2022-09-12T01:51:57;9.77;;;8.87;;
14394;SDS011;7282;49.204;10.652;2022-09-12T01:55:11;9.40;;;8.50;;
14394;SDS011;7282;49.204;10.652;2022-09-12T01:56:54;9.33;;;8.53;;
14394;SDS011;7282;49.204;10.652;2022-09-12T01:59:42;10.40;;;9.40;;
14394;SDS011;7282;49.204;10.652;2022-09-12T02:02:04;8.70;;;7.90;;
14394;SDS011;7282;49.204;10.652;2022-09-12T02:04:40;17.43;;;8.67;;
14394;SDS011;7282;49.204;10.652;2022-09-12T02:07:13;7.80;;;7.10;;
14394;SDS011;7282;49.204;10.652;2022-09-12T02:09:48;7.13;;;6.57;;
14394;SDS011;7282;49.204;10.652;2022-09-12T02:12:15;9.07;;;7.90;;
14394;SDS011;7282;49.204;10.652;2022-09-12T02:14:48;8.03;;;7.20;;
14394;SDS011;7282;49.204;10.652;2022-09-12T02:17:16;7.13;;;6.53;;
14394;SDS011;7282;49.204;10.652;2022-09-12T02:19:57;7.53;;;6.87;;
14394;SDS011;7282;49.204;10.652;2022-09-12T02:22:22;7.10;;;6.50;;
14394;SDS011;7282;49.204;10.652;2022-09-12T02:24:51;7.30;;;6.70;;
14394;SDS011;7282;49.204;10.652;2022-09-12T02:27:23;7.20;;;6.67;;
14394;SDS011;7282;49.204;10.652;2022-09-12T02:29:47;6.67;;;6.07;;
14394;SDS011;7282;49.204;10.652;2022-09-12T02:32:52;8.13;;;7.40;;
14394;SDS011;7282;49.204;10.652;2022-09-12T02:34:59;8.03;;;7.33;;
14394;SDS011;7282;49.204;10.652;2022-09-12T02:37:23;8.43;;;7.63;;
14394;SDS011;7282;49.204;10.652;2022-09-12T02:39:55;9.37;;;8.47;;
14394;SDS011;7282;49.204;10.652;2022-09-12T02:42:20;8.37;;;7.57;;
14394;SDS011;7282;49.204;10.652;2022-09-12T02:44:47;7.33;;;6.63;;
14394;SDS011;7282;49.204;10.652;2022-09-12T02:47:17;8.30;;;7.50;;
14394;SDS011;7282;49.204;10.652;2022-09-12T02:49:43;7.73;;;7.03;;
14394;SDS011;7282;49.204;10.652;2022-09-12T02:52:10;8.30;;;7.50;;
14394;SDS011;7282;49.204;10.652;2022-09-12T02:54:37;7.93;;;7.23;;
14394;SDS011;7282;49.204;10.652;2022-09-12T02:57:05;7.00;;;6.40;;
14394;SDS011;7282;49.204;10.652;2022-09-12T02:59:33;7.00;;;6.30;;
14394;SDS011;7282;49.204;10.652;2022-09-12T03:07:04;6.90;;;6.30;;
14394;SDS011;7282;49.204;10.652;2022-09-12T03:14:30;7.43;;;6.73;;
14394;SDS011;7282;49.204;10.652;2022-09-12T03:16:57;8.03;;;7.27;;
14394;SDS011;7282;49.204;10.652;2022-09-12T03:19:24;9.47;;;8.40;;
14394;SDS011;7282;49.204;10.652;2022-09-12T03:22:12;12.20;;;9.57;;
14394;SDS011;7282;49.204;10.652;2022-09-12T03:24:42;9.80;;;8.80;;
14394;SDS011;7282;49.204;10.652;2022-09-12T03:27:15;8.60;;;7.83;;
14394;SDS011;7282;49.204;10.652;2022-09-12T03:29:39;8.60;;;7.80;;
14394;SDS011;7282;49.204;10.652;2022-09-12T03:32:06;8.43;;;7.63;;
14394;SDS011;7282;49.204;10.652;2022-09-12T03:34:33;7.90;;;7.20;;
14394;SDS011;7282;49.204;10.652;2022-09-12T03:37:00;7.83;;;7.10;;
14394;SDS011;7282;49.204;10.652;2022-09-12T03:39:27;7.03;;;6.43;;
14394;SDS011;7282;49.204;10.652;2022-09-12T03:41:54;7.67;;;7.07;;
14394;SDS011;7282;49.204;10.652;2022-09-12T03:44:20;7.30;;;6.60;;
14394;SDS011;7282;49.204;10.652;2022-09-12T03:46:47;7.53;;;6.83;;
14394;SDS011;7282;49.204;10.652;2022-09-12T03:49:14;7.23;;;6.63;;
14394;SDS011;7282;49.204;10.652;2022-09-12T03:51:41;8.10;;;7.40;;
14394;SDS011;7282;49.204;10.652;2022-09-12T03:54:08;7.63;;;6.93;;
14394;SDS011;7282;49.204;10.652;2022-09-12T03:56:35;8.27;;;7.47;;
14394;SDS011;7282;49.204;10.652;2022-09-12T03:59:05;8.00;;;7.30;;
14394;SDS011;7282;49.204;10.652;2022-09-12T04:01:31;7.43;;;6.73;;
14394;SDS011;7282;49.204;10.652;2022-09-12T04:03:58;8.93;;;8.13;;
14394;SDS011;7282;49.204;10.652;2022-09-12T04:06:25;7.40;;;6.70;;
14394;SDS011;7282;49.204;10.652;2022-09-12T04:08:52;8.57;;;7.77;;
14394;SDS011;7282;49.204;10.652;2022-09-12T04:11:19;9.60;;;8.50;;
14394;SDS011;7282;49.204;10.652;2022-09-12T04:13:46;8.30;;;7.50;;
14394;SDS011;7282;49.204;10.652;2022-09-12T04:16:13;7.97;;;7.23;;
14394;SDS011;7282;49.204;10.652;2022-09-12T04:18:40;8.07;;;7.37;;
14394;SDS011;7282;49.204;10.652;2022-09-12T04:21:08;8.50;;;7.70;;
14394;SDS011;7282;49.204;10.652;2022-09-12T04:23:35;8.77;;;7.97;;
14394;SDS011;7282;49.204;10.652;2022-09-12T04:26:02;9.97;;;8.97;;
14394;SDS011;7282;49.204;10.652;2022-09-12T04:28:31;8.77;;;7.97;;
14394;SDS011;7282;49.204;10.652;2022-09-12T04:31:05;7.80;;;7.10;;
14394;SDS011;7282;49.204;10.652;2022-09-12T04:33:33;10.00;;;8.13;;
14394;SDS011;7282;49.204;10.652;2022-09-12T04:36:03;7.93;;;7.13;;
14394;SDS011;7282;49.204;10.652;2022-09-12T04:38:31;7.83;;;7.13;;
14394;SDS011;7282;49.204;10.652;2022-09-12T04:40:57;7.53;;;6.93;;
14394;SDS011;7282;49.204;10.652;2022-09-12T04:43:24;7.30;;;6.60;;
14394;SDS011;7282;49.204;10.652;2022-09-12T04:45:51;7.80;;;7.10;;
14394;SDS011;7282;49.204;10.652;2022-09-12T04:48:17;8.57;;;7.83;;
14394;SDS011;7282;49.204;10.652;2022-09-12T04:50:44;8.40;;;7.60;;
14394;SDS011;7282;49.204;10.652;2022-09-12T04:53:11;8.93;;;8.13;;
14394;SDS011;7282;49.204;10.652;2022-09-12T04:55:37;8.33;;;7.53;;
14394;SDS011;7282;49.204;10.652;2022-09-12T04:58:04;8.73;;;7.83;;
14394;SDS011;7282;49.204;10.652;2022-09-12T05:00:31;10.30;;;9.00;;
14394;SDS011;7282;49.204;10.652;2022-09-12T05:02:58;14.53;;;9.80;;
14394;SDS011;7282;49.204;10.652;2022-09-12T05:05:25;10.83;;;9.40;;
14394;SDS011;7282;49.204;10.652;2022-09-12T05:07:52;10.03;;;9.03;;
14394;SDS011;7282;49.204;10.652;2022-09-12T05:10:18;9.40;;;8.40;;
14394;SDS011;7282;49.204;10.652;2022-09-12T05:12:45;9.70;;;8.70;;
14394;SDS011;7282;49.204;10.652;2022-09-12T05:15:12;9.70;;;8.73;;
14394;SDS011;7282;49.204;10.652;2022-09-12T05:17:39;10.63;;;9.00;;
14394;SDS011;7282;49.204;10.652;2022-09-12T05:20:06;10.50;;;8.63;;
14394;SDS011;7282;49.204;10.652;2022-09-12T05:22:34;15.63;;;10.10;;
14394;SDS011;7282;49.204;10.652;2022-09-12T05:25:01;11.27;;;9.70;;
14394;SDS011;7282;49.204;10.652;2022-09-12T05:27:27;10.87;;;9.77;;
14394;SDS011;7282;49.204;10.652;2022-09-12T05:29:54;15.07;;;11.33;;
14394;SDS011;7282;49.204;10.652;2022-09-12T05:32:21;12.93;;;10.47;;
14394;SDS011;7282;49.204;10.652;2022-09-12T05:34:48;10.57;;;9.53;;
14394;SDS011;7282;49.204;10.652;2022-09-12T05:37:14;10.67;;;9.57;;
14394;SDS011;7282;49.204;10.652;2022-09-12T05:39:41;12.93;;;11.57;;
14394;SDS011;7282;49.204;10.652;2022-09-12T05:42:08;12.30;;;11.00;;
14394;SDS011;7282;49.204;10.652;2022-09-12T05:44:34;12.60;;;10.23;;
14394;SDS011;7282;49.204;10.652;2022-09-12T05:47:02;11.60;;;10.20;;
14394;SDS011;7282;49.204;10.652;2022-09-12T05:49:28;11.70;;;10.47;;
14394;SDS011;7282;49.204;10.652;2022-09-12T05:51:55;10.53;;;9.40;;
14394;SDS011;7282;49.204;10.652;2022-09-12T05:54:22;10.37;;;9.27;;
14394;SDS011;7282;49.204;10.652;2022-09-12T05:56:48;9.77;;;8.77;;
14394;SDS011;7282;49.204;10.652;2022-09-12T05:59:17;9.10;;;8.20;;
14394;SDS011;7282;49.204;10.652;2022-09-12T06:01:43;8.97;;;8.10;;
14394;SDS011;7282;49.204;10.652;2022-09-12T06:04:10;10.40;;;8.70;;
14394;SDS011;7282;49.204;10.652;2022-09-12T06:06:38;10.43;;;8.83;;
14394;SDS011;7282;49.204;10.652;2022-09-12T06:09:07;10.33;;;9.30;;
14394;SDS011;7282;49.204;10.652;2022-09-12T06:11:34;20.33;;;18.30;;
14394;SDS011;7282;49.204;10.652;2022-09-12T06:14:02;11.13;;;10.03;;
14394;SDS011;7282;49.204;10.652;2022-09-12T06:16:30;10.70;;;9.60;;
14394;SDS011;7282;49.204;10.652;2022-09-12T06:18:58;10.57;;;9.47;;
14394;SDS011;7282;49.204;10.652;2022-09-12T06:21:25;9.17;;;8.37;;
14394;SDS011;7282;49.204;10.652;2022-09-12T06:23:52;9.67;;;8.67;;
14394;SDS011;7282;49.204;10.652;2022-09-12T06:26:19;10.77;;;9.47;;
14394;SDS011;7282;49.204;10.652;2022-09-12T06:28:48;11.30;;;9.37;;
14394;SDS011;7282;49.204;10.652;2022-09-12T06:31:17;10.33;;;9.27;;
14394;SDS011;7282;49.204;10.652;2022-09-12T06:33:45;10.97;;;9.67;;
14394;SDS011;7282;49.204;10.652;2022-09-12T06:36:17;9.53;;;8.53;;
14394;SDS011;7282;49.204;10.652;2022-09-12T06:38:43;9.67;;;8.77;;
14394;SDS011;7282;49.204;10.652;2022-09-12T06:41:15;10.10;;;9.10;;
14394;SDS011;7282;49.204;10.652;2022-09-12T06:43:42;9.73;;;8.83;;
14394;SDS011;7282;49.204;10.652;2022-09-12T06:46:09;10.10;;;9.10;;
14394;SDS011;7282;49.204;10.652;2022-09-12T06:48:36;9.93;;;8.93;;
14394;SDS011;7282;49.204;10.652;2022-09-12T06:51:03;9.70;;;8.80;;
14394;SDS011;7282;49.204;10.652;2022-09-12T06:53:32;9.73;;;8.73;;
14394;SDS011;7282;49.204;10.652;2022-09-12T06:56:00;10.83;;;9.47;;
14394;SDS011;7282;49.204;10.652;2022-09-12T06:58:27;12.37;;;10.03;;
14394;SDS011;7282;49.204;10.652;2022-09-12T07:01:01;11.77;;;10.37;;
14394;SDS011;7282;49.204;10.652;2022-09-12T07:03:31;11.83;;;10.53;;
14394;SDS011;7282;49.204;10.652;2022-09-12T07:06:06;14.97;;;11.80;;
14394;SDS011;7282;49.204;10.652;2022-09-12T07:08:29;19.30;;;12.73;;
14394;SDS011;7282;49.204;10.652;2022-09-12T07:10:57;16.87;;;13.53;;
14394;SDS011;7282;49.204;10.652;2022-09-12T07:13:24;16.60;;;13.87;;
14394;SDS011;7282;49.204;10.652;2022-09-12T07:15:50;13.40;;;12.00;;
14394;SDS011;7282;49.204;10.652;2022-09-12T07:18:17;16.17;;;13.87;;
14394;SDS011;7282;49.204;10.652;2022-09-12T07:20:44;17.97;;;14.77;;
14394;SDS011;7282;49.204;10.652;2022-09-12T07:23:11;20.33;;;14.60;;
14394;SDS011;7282;49.204;10.652;2022-09-12T07:25:37;19.13;;;14.80;;
14394;SDS011;7282;49.204;10.652;2022-09-12T07:28:04;19.53;;;15.80;;
14394;SDS011;7282;49.204;10.652;2022-09-12T07:30:31;24.43;;;16.67;;
14394;SDS011;7282;49.204;10.652;2022-09-12T07:32:57;23.17;;;17.40;;
14394;SDS011;7282;49.204;10.652;2022-09-12T07:35:24;25.97;;;18.47;;
14394;SDS011;7282;49.204;10.652;2022-09-12T07:37:51;32.37;;;20.13;;
14394;SDS011;7282;49.204;10.652;2022-09-12T07:40:18;27.10;;;18.07;;
14394;SDS011;7282;49.204;10.652;2022-09-12T07:42:44;25.40;;;17.80;;
14394;SDS011;7282;49.204;10.652;2022-09-12T07:45:12;25.07;;;18.87;;
14394;SDS011;7282;49.204;10.652;2022-09-12T07:47:39;24.97;;;18.70;;
14394;SDS011;7282;49.204;10.652;2022-09-12T07:50:06;22.07;;;17.17;;
14394;SDS011;7282;49.204;10.652;2022-09-12T07:52:33;22.00;;;17.47;;
14394;SDS011;7282;49.204;10.652;2022-09-12T07:54:59;21.17;;;16.97;;
14394;SDS011;7282;49.204;10.652;2022-09-12T07:57:28;22.43;;;17.17;;
14394;SDS011;7282;49.204;10.652;2022-09-12T07:59:55;19.60;;;15.97;;
14394;SDS011;7282;49.204;10.652;2022-09-12T08:02:22;21.27;;;16.87;;
14394;SDS011;7282;49.204;10.652;2022-09-12T08:04:49;21.77;;;17.40;;
14394;SDS011;7282;49.204;10.652;2022-09-12T08:07:16;20.80;;;16.40;;
14394;SDS011;7282;49.204;10.652;2022-09-12T08:09:44;21.20;;;18.13;;
14394;SDS011;7282;49.204;10.652;2022-09-12T08:12:11;20.37;;;16.67;;
14394;SDS011;7282;49.204;10.652;2022-09-12T08:14:38;17.80;;;15.90;;
14394;SDS011;7282;49.204;10.652;2022-09-12T08:17:04;24.20;;;18.77;;
14394;SDS011;7282;49.204;10.652;2022-09-12T08:19:31;19.23;;;16.00;;
14394;SDS011;7282;49.204;10.652;2022-09-12T08:21:58;21.93;;;18.77;;
14394;SDS011;7282;49.204;10.652;2022-09-12T08:24:25;22.10;;;18.17;;
14394;SDS011;7282;49.204;10.652;2022-09-12T08:26:51;19.43;;;16.17;;
14394;SDS011;7282;49.204;10.652;2022-09-12T08:29:18;18.30;;;15.73;;
14394;SDS011;7282;49.204;10.652;2022-09-12T08:31:45;19.03;;;16.60;;
14394;SDS011;7282;49.204;10.652;2022-09-12T08:34:11;17.93;;;15.47;;
14394;SDS011;7282;49.204;10.652;2022-09-12T08:36:38;19.53;;;17.50;;
14394;SDS011;7282;49.204;10.652;2022-09-12T08:39:06;20.13;;;16.50;;
14394;SDS011;7282;49.204;10.652;2022-09-12T08:44:09;19.53;;;16.10;;
14394;SDS011;7282;49.204;10.652;2022-09-12T08:46:36;21.97;;;17.73;;
14394;SDS011;7282;49.204;10.652;2022-09-12T08:49:03;16.87;;;15.07;;
14394;SDS011;7282;49.204;10.652;2022-09-12T08:51:31;17.83;;;15.93;;
14394;SDS011;7282;49.204;10.652;2022-09-12T08:53:59;15.10;;;13.50;;
14394;SDS011;7282;49.204;10.652;2022-09-12T08:56:28;16.83;;;14.10;;
14394;SDS011;7282;49.204;10.652;2022-09-12T08:58:56;13.67;;;12.27;;
14394;SDS011;7282;49.204;10.652;2022-09-12T09:06:55;14.00;;;12.50;;
14394;SDS011;7282;49.204;10.652;2022-09-12T09:11:54;16.07;;;14.37;;
14394;SDS011;7282;49.204;10.652;2022-09-12T09:17:10;13.50;;;12.10;;
14394;SDS011;7282;49.204;10.652;2022-09-12T09:19:39;13.40;;;12.10;;
14394;SDS011;7282;49.204;10.652;2022-09-12T09:22:10;12.67;;;11.33;;
14394;SDS011;7282;49.204;10.652;2022-09-12T09:24:37;12.17;;;10.97;;
14394;SDS011;7282;49.204;10.652;2022-09-12T09:27:05;10.47;;;9.47;;
14394;SDS011;7282;49.204;10.652;2022-09-12T09:29:36;13.50;;;12.13;;
14394;SDS011;7282;49.204;10.652;2022-09-12T09:32:09;12.00;;;10.80;;
14394;SDS011;7282;49.204;10.652;2022-09-12T09:34:34;12.93;;;11.63;;
14394;SDS011;7282;49.204;10.652;2022-09-12T09:44:56;13.67;;;12.37;;
14394;SDS011;7282;49.204;10.652;2022-09-12T09:47:24;12.37;;;11.17;;
14394;SDS011;7282;49.204;10.652;2022-09-12T09:49:51;10.53;;;9.53;;
14394;SDS011;7282;49.204;10.652;2022-09-12T09:52:19;10.00;;;9.10;;
14394;SDS011;7282;49.204;10.652;2022-09-12T09:54:49;12.47;;;11.27;;
14394;SDS011;7282;49.204;10.652;2022-09-12T10:03:03;10.53;;;9.50;;
14394;SDS011;7282;49.204;10.652;2022-09-12T10:05:31;10.50;;;9.50;;
14394;SDS011;7282;49.204;10.652;2022-09-12T10:07:59;9.67;;;8.87;;
14394;SDS011;7282;49.204;10.652;2022-09-12T10:10:25;8.97;;;8.17;;
14394;SDS011;7282;49.204;10.652;2022-09-12T10:13:12;8.63;;;7.83;;
14394;SDS011;7282;49.204;10.652;2022-09-12T10:15:36;11.60;;;10.60;;
14394;SDS011;7282;49.204;10.652;2022-09-12T10:18:03;9.90;;;9.10;;
14394;SDS011;7282;49.204;10.652;2022-09-12T10:20:37;7.73;;;7.03;;
14394;SDS011;7282;49.204;10.652;2022-09-12T10:23:50;7.50;;;6.80;;
14394;SDS011;7282;49.204;10.652;2022-09-12T10:25:33;7.93;;;7.20;;
14394;SDS011;7282;49.204;10.652;2022-09-12T10:27:59;8.67;;;7.87;;
14394;SDS011;7282;49.204;10.652;2022-09-12T10:30:27;10.07;;;9.07;;
14394;SDS011;7282;49.204;10.652;2022-09-12T10:33:04;9.33;;;8.50;;
14394;SDS011;7282;49.204;10.652;2022-09-12T10:35:29;6.83;;;6.20;;
14394;SDS011;7282;49.204;10.652;2022-09-12T10:37:59;8.03;;;7.33;;
14394;SDS011;7282;49.204;10.652;2022-09-12T10:40:33;7.20;;;6.60;;
14394;SDS011;7282;49.204;10.652;2022-09-12T10:42:58;7.73;;;7.03;;
14394;SDS011;7282;49.204;10.652;2022-09-12T10:45:28;6.00;;;5.47;;
14394;SDS011;7282;49.204;10.652;2022-09-12T10:47:56;5.00;;;4.60;;
14394;SDS011;7282;49.204;10.652;2022-09-12T10:55:43;5.10;;;4.70;;
14394;SDS011;7282;49.204;10.652;2022-09-12T11:00:46;5.60;;;5.10;;
14394;SDS011;7282;49.204;10.652;2022-09-12T11:11:03;4.10;;;3.80;;
14394;SDS011;7282;49.204;10.652;2022-09-12T11:13:41;4.47;;;4.10;;
14394;SDS011;7282;49.204;10.652;2022-09-12T11:16:05;5.63;;;5.13;;
14394;SDS011;7282;49.204;10.652;2022-09-12T11:39:58;4.60;;;4.20;;
14394;SDS011;7282;49.204;10.652;2022-09-12T11:42:29;4.53;;;4.20;;
14394;SDS011;7282;49.204;10.652;2022-09-12T11:45:08;4.97;;;4.57;;
14394;SDS011;7282;49.204;10.652;2022-09-12T11:47:31;5.27;;;4.77;;
14394;SDS011;7282;49.204;10.652;2022-09-12T11:50:00;4.97;;;4.50;;
14394;SDS011;7282;49.204;10.652;2022-09-12T11:52:29;4.53;;;4.10;;
14394;SDS011;7282;49.204;10.652;2022-09-12T11:55:04;4.43;;;4.03;;
14394;SDS011;7282;49.204;10.652;2022-09-12T11:57:44;4.70;;;4.30;;
14394;SDS011;7282;49.204;10.652;2022-09-12T12:00:31;4.63;;;4.23;;
14394;SDS011;7282;49.204;10.652;2022-09-12T12:05:48;5.03;;;4.37;;
14394;SDS011;7282;49.204;10.652;2022-09-12T12:08:16;4.63;;;4.23;;
14394;SDS011;7282;49.204;10.652;2022-09-12T12:10:47;4.43;;;4.03;;
14394;SDS011;7282;49.204;10.652;2022-09-12T12:15:47;4.73;;;4.30;;
14394;SDS011;7282;49.204;10.652;2022-09-12T12:18:16;4.03;;;3.73;;
14394;SDS011;7282;49.204;10.652;2022-09-12T12:20:43;4.57;;;4.10;;
14394;SDS011;7282;49.204;10.652;2022-09-12T12:23:30;4.10;;;3.80;;
14394;SDS011;7282;49.204;10.652;2022-09-12T12:25:57;4.97;;;4.30;;
14394;SDS011;7282;49.204;10.652;2022-09-12T12:31:13;4.23;;;3.83;;
14394;SDS011;7282;49.204;10.652;2022-09-12T12:36:30;4.50;;;4.10;;
14394;SDS011;7282;49.204;10.652;2022-09-12T12:38:58;3.93;;;3.63;;
14394;SDS011;7282;49.204;10.652;2022-09-12T12:43:56;4.50;;;4.10;;
14394;SDS011;7282;49.204;10.652;2022-09-12T12:46:25;3.97;;;3.67;;
14394;SDS011;7282;49.204;10.652;2022-09-12T12:49:07;4.30;;;3.97;;
14394;SDS011;7282;49.204;10.652;2022-09-12T12:51:37;4.20;;;3.87;;
14394;SDS011;7282;49.204;10.652;2022-09-12T12:56:52;3.83;;;3.43;;
14394;SDS011;7282;49.204;10.652;2022-09-12T12:59:20;3.90;;;3.50;;
14394;SDS011;7282;49.204;10.652;2022-09-12T13:01:51;3.60;;;3.30;;
14394;SDS011;7282;49.204;10.652;2022-09-12T13:04:19;4.20;;;3.90;;
14394;SDS011;7282;49.204;10.652;2022-09-12T13:07:04;3.77;;;3.47;;
14394;SDS011;7282;49.204;10.652;2022-09-12T13:09:36;3.83;;;3.53;;
14394;SDS011;7282;49.204;10.652;2022-09-12T13:12:09;4.20;;;3.90;;
14394;SDS011;7282;49.204;10.652;2022-09-12T13:14:56;4.00;;;3.70;;
14394;SDS011;7282;49.204;10.652;2022-09-12T13:17:20;3.90;;;3.60;;
14394;SDS011;7282;49.204;10.652;2022-09-12T13:19:36;4.53;;;4.13;;
14394;SDS011;7282;49.204;10.652;2022-09-12T13:22:04;4.03;;;3.73;;
14394;SDS011;7282;49.204;10.652;2022-09-12T13:24:31;4.53;;;4.00;;
14394;SDS011;7282;49.204;10.652;2022-09-12T13:26:58;3.93;;;3.63;;
14394;SDS011;7282;49.204;10.652;2022-09-12T13:29:26;3.73;;;3.43;;
14394;SDS011;7282;49.204;10.652;2022-09-12T13:31:59;3.40;;;3.10;;
14394;SDS011;7282;49.204;10.652;2022-09-12T13:34:28;4.10;;;3.80;;
14394;SDS011;7282;49.204;10.652;2022-09-12T13:37:07;4.30;;;3.80;;
14394;SDS011;7282;49.204;10.652;2022-09-12T13:39:40;4.43;;;4.13;;
14394;SDS011;7282;49.204;10.652;2022-09-12T13:47:24;3.53;;;3.23;;
14394;SDS011;7282;49.204;10.652;2022-09-12T13:49:51;3.57;;;3.27;;
14394;SDS011;7282;49.204;10.652;2022-09-12T13:52:19;3.90;;;3.60;;
14394;SDS011;7282;49.204;10.652;2022-09-12T13:54:47;3.47;;;3.23;;
14394;SDS011;7282;49.204;10.652;2022-09-12T13:57:28;3.23;;;2.93;;
14394;SDS011;7282;49.204;10.652;2022-09-12T13:59:56;3.80;;;3.30;;
14394;SDS011;7282;49.204;10.652;2022-09-12T14:02:24;3.73;;;3.43;;
14394;SDS011;7282;49.204;10.652;2022-09-12T14:04:51;3.80;;;3.50;;
14394;SDS011;7282;49.204;10.652;2022-09-12T14:07:59;3.83;;;3.50;;
14394;SDS011;7282;49.204;10.652;2022-09-12T14:10:05;3.20;;;3.00;;
14394;SDS011;7282;49.204;10.652;2022-09-12T14:12:36;3.60;;;3.30;;
14394;SDS011;7282;49.204;10.652;2022-09-12T14:15:05;3.83;;;3.53;;
14394;SDS011;7282;49.204;10.652;2022-09-12T14:17:36;3.50;;;3.27;;
14394;SDS011;7282;49.204;10.652;2022-09-12T14:20:05;3.60;;;3.30;;
14394;SDS011;7282;49.204;10.652;2022-09-12T14:22:32;3.30;;;3.10;;
14394;SDS011;7282;49.204;10.652;2022-09-12T14:25:00;3.50;;;3.20;;
14394;SDS011;7282;49.204;10.652;2022-09-12T14:27:28;3.17;;;2.97;;
14394;SDS011;7282;49.204;10.652;2022-09-12T14:30:00;3.53;;;3.23;;
14394;SDS011;7282;49.204;10.652;2022-09-12T14:32:28;3.03;;;2.80;;
14394;SDS011;7282;49.204;10.652;2022-09-12T14:37:38;3.30;;;2.80;;
14394;SDS011;7282;49.204;10.652;2022-09-12T14:40:15;3.00;;;2.70;;
14394;SDS011;7282;49.204;10.652;2022-09-12T14:42:43;3.40;;;3.20;;
14394;SDS011;7282;49.204;10.652;2022-09-12T14:45:15;2.70;;;2.50;;
14394;SDS011;7282;49.204;10.652;2022-09-12T14:47:42;2.70;;;2.50;;
14394;SDS011;7282;49.204;10.652;2022-09-12T14:50:15;3.53;;;3.23;;
14394;SDS011;7282;49.204;10.652;2022-09-12T14:52:42;3.00;;;2.80;;
14394;SDS011;7282;49.204;10.652;2022-09-12T14:57:43;2.87;;;2.67;;
14394;SDS011;7282;49.204;10.652;2022-09-12T15:00:15;3.37;;;3.07;;
14394;SDS011;7282;49.204;10.652;2022-09-12T15:02:42;2.70;;;2.53;;
14394;SDS011;7282;49.204;10.652;2022-09-12T15:07:50;3.10;;;2.90;;
14394;SDS011;7282;49.204;10.652;2022-09-12T15:15:31;3.43;;;3.23;;
14394;SDS011;7282;49.204;10.652;2022-09-12T15:17:58;3.17;;;2.97;;
14394;SDS011;7282;49.204;10.652;2022-09-12T15:20:25;2.93;;;2.73;;
14394;SDS011;7282;49.204;10.652;2022-09-12T15:22:51;3.23;;;3.00;;
14394;SDS011;7282;49.204;10.652;2022-09-12T15:25:18;3.43;;;2.90;;
14394;SDS011;7282;49.204;10.652;2022-09-12T15:27:45;3.13;;;2.77;;
14394;SDS011;7282;49.204;10.652;2022-09-12T15:30:12;2.77;;;2.53;;
14394;SDS011;7282;49.204;10.652;2022-09-12T15:32:39;2.90;;;2.70;;
14394;SDS011;7282;49.204;10.652;2022-09-12T15:35:12;2.73;;;2.53;;
14394;SDS011;7282;49.204;10.652;2022-09-12T15:37:36;3.43;;;3.20;;
14394;SDS011;7282;49.204;10.652;2022-09-12T15:40:02;3.43;;;3.13;;
14394;SDS011;7282;49.204;10.652;2022-09-12T15:42:30;3.30;;;3.00;;
14394;SDS011;7282;49.204;10.652;2022-09-12T15:44:57;2.97;;;2.77;;
14394;SDS011;7282;49.204;10.652;2022-09-12T15:47:25;3.10;;;2.80;;
14394;SDS011;7282;49.204;10.652;2022-09-12T15:49:52;3.10;;;2.50;;
14394;SDS011;7282;49.204;10.652;2022-09-12T15:52:18;2.40;;;2.30;;
14394;SDS011;7282;49.204;10.652;2022-09-12T15:54:45;2.50;;;2.30;;
14394;SDS011;7282;49.204;10.652;2022-09-12T15:57:12;2.80;;;2.60;;
14394;SDS011;7282;49.204;10.652;2022-09-12T15:59:38;2.70;;;2.43;;
14394;SDS011;7282;49.204;10.652;2022-09-12T16:02:05;3.13;;;2.87;;
14394;SDS011;7282;49.204;10.652;2022-09-12T16:04:32;2.77;;;2.50;;
14394;SDS011;7282;49.204;10.652;2022-09-12T16:06:58;2.50;;;2.30;;
14394;SDS011;7282;49.204;10.652;2022-09-12T16:09:25;2.50;;;2.20;;
14394;SDS011;7282;49.204;10.652;2022-09-12T16:11:52;2.50;;;2.30;;
14394;SDS011;7282;49.204;10.652;2022-09-12T16:14:18;2.50;;;2.30;;
14394;SDS011;7282;49.204;10.652;2022-09-12T16:16:50;2.80;;;2.57;;
14394;SDS011;7282;49.204;10.652;2022-09-12T16:19:14;3.00;;;2.80;;
14394;SDS011;7282;49.204;10.652;2022-09-12T16:21:40;2.50;;;2.30;;
14394;SDS011;7282;49.204;10.652;2022-09-12T16:24:07;2.80;;;2.60;;
14394;SDS011;7282;49.204;10.652;2022-09-12T16:26:34;2.87;;;2.60;;
14394;SDS011;7282;49.204;10.652;2022-09-12T16:29:00;2.70;;;2.50;;
14394;SDS011;7282;49.204;10.652;2022-09-12T16:31:27;3.40;;;3.10;;
14394;SDS011;7282;49.204;10.652;2022-09-12T16:33:54;3.27;;;2.97;;
14394;SDS011;7282;49.204;10.652;2022-09-12T16:36:20;3.50;;;3.20;;
14394;SDS011;7282;49.204;10.652;2022-09-12T16:38:53;2.90;;;2.70;;
14394;SDS011;7282;49.204;10.652;2022-09-12T16:41:21;2.90;;;2.70;;
14394;SDS011;7282;49.204;10.652;2022-09-12T16:43:50;3.40;;;3.20;;
14394;SDS011;7282;49.204;10.652;2022-09-12T16:46:17;3.33;;;3.13;;
14394;SDS011;7282;49.204;10.652;2022-09-12T16:48:46;3.17;;;2.97;;